Okauchee, Wisconsin
Current Conditions -  °F | °C
As of 1:45 PM on Tuesday 21 Oct 2014 (Local Time) from KUES Reporting Station
Overcast Overcast  
Wind Chill: 39°   Ceiling: 2500
Heat Index: 45°   Visibility: 10mi
Dew Point: 36°   Wind: 10mph
Humidity: 71%   Direction: 20°NNE
Pressure: 30.22"   Gusts: NA
Location:  43.11°N, 88.44°W
Report Text: KUES 211845Z 02009KT 10SM OVC025 07/02 A3022
Loading
Personal Weather Stations






























Interactive Weather Map
Tropical Storm Tracking
New forecast layout! Learn more

10-Day Weather Forecast

Advertisements
Track Severe Weather on mobile